sensor_id;sensor_type;location;lat;lon;timestamp;pressure;altitude;pressure_sealevel;temperature;humidity
10014;BME280;45684;48.358;10.746;2023-06-14T00:00:12;95691.97;;;12.66;79.36
10014;BME280;45684;48.358;10.746;2023-06-14T00:02:42;95697.06;;;12.55;79.63
10014;BME280;45684;48.358;10.746;2023-06-14T00:05:10;95704.63;;;12.37;80.72
10014;BME280;45684;48.358;10.746;2023-06-14T00:07:40;95698.53;;;12.28;83.00
10014;BME280;45684;48.358;10.746;2023-06-14T00:10:10;95699.53;;;12.23;83.54
10014;BME280;45684;48.358;10.746;2023-06-14T00:12:38;95698.88;;;12.27;82.89
10014;BME280;45684;48.358;10.746;2023-06-14T00:15:08;95706.78;;;12.19;84.62
10014;BME280;45684;48.358;10.746;2023-06-14T00:17:36;95706.09;;;12.22;83.98
10014;BME280;45684;48.358;10.746;2023-06-14T00:20:06;95702.38;;;12.27;81.72
10014;BME280;45684;48.358;10.746;2023-06-14T00:22:34;95703.41;;;12.22;82.18
10014;BME280;45684;48.358;10.746;2023-06-14T00:25:03;95695.69;;;12.24;83.86
10014;BME280;45684;48.358;10.746;2023-06-14T00:27:51;95706.44;;;12.33;83.53
10014;BME280;45684;48.358;10.746;2023-06-14T00:30:21;95705.53;;;12.29;83.74
10014;BME280;45684;48.358;10.746;2023-06-14T00:32:49;95702.38;;;12.27;84.63
10014;BME280;45684;48.358;10.746;2023-06-14T00:35:18;95693.00;;;12.24;85.33
10014;BME280;45684;48.358;10.746;2023-06-14T00:37:46;95703.59;;;12.30;84.24
10014;BME280;45684;48.358;10.746;2023-06-14T00:40:14;95697.41;;;12.29;83.28
10014;BME280;45684;48.358;10.746;2023-06-14T00:42:44;95697.97;;;12.35;80.96
10014;BME280;45684;48.358;10.746;2023-06-14T00:45:12;95701.47;;;12.23;83.34
10014;BME280;45684;48.358;10.746;2023-06-14T00:47:43;95698.06;;;12.14;84.12
10014;BME280;45684;48.358;10.746;2023-06-14T00:50:11;95697.94;;;12.10;83.58
10014;BME280;45684;48.358;10.746;2023-06-14T00:52:39;95700.66;;;12.10;83.49
10014;BME280;45684;48.358;10.746;2023-06-14T00:55:08;95693.78;;;12.13;82.82
10014;BME280;45684;48.358;10.746;2023-06-14T00:57:36;95695.69;;;12.12;81.95
10014;BME280;45684;48.358;10.746;2023-06-14T01:00:07;95692.84;;;11.96;83.03
10014;BME280;45684;48.358;10.746;2023-06-14T01:02:36;95700.16;;;11.84;85.93
10014;BME280;45684;48.358;10.746;2023-06-14T01:05:09;95699.22;;;11.80;87.01
10014;BME280;45684;48.358;10.746;2023-06-14T01:08:05;95702.13;;;11.74;86.65
10014;BME280;45684;48.358;10.746;2023-06-14T01:10:41;95700.91;;;11.72;87.49
10014;BME280;45684;48.358;10.746;2023-06-14T01:13:20;95701.91;;;11.67;87.83
10014;BME280;45684;48.358;10.746;2023-06-14T01:15:49;95703.59;;;11.72;85.48
10014;BME280;45684;48.358;10.746;2023-06-14T01:18:18;95703.25;;;11.61;88.41
10014;BME280;45684;48.358;10.746;2023-06-14T01:20:47;95693.53;;;11.60;89.68
10014;BME280;45684;48.358;10.746;2023-06-14T01:23:19;95705.97;;;11.61;88.87
10014;BME280;45684;48.358;10.746;2023-06-14T01:25:47;95698.50;;;11.58;88.80
10014;BME280;45684;48.358;10.746;2023-06-14T01:28:20;95701.84;;;11.55;88.64
10014;BME280;45684;48.358;10.746;2023-06-14T01:30:50;95698.78;;;11.44;89.42
10014;BME280;45684;48.358;10.746;2023-06-14T01:33:21;95691.66;;;11.40;89.63
10014;BME280;45684;48.358;10.746;2023-06-14T01:35:50;95692.66;;;11.35;91.00
10014;BME280;45684;48.358;10.746;2023-06-14T01:38:22;95693.91;;;11.38;91.43
10014;BME280;45684;48.358;10.746;2023-06-14T01:40:53;95694.03;;;11.41;90.18
10014;BME280;45684;48.358;10.746;2023-06-14T01:43:25;95694.56;;;11.35;90.66
10014;BME280;45684;48.358;10.746;2023-06-14T01:45:54;95693.78;;;11.34;90.03
10014;BME280;45684;48.358;10.746;2023-06-14T01:48:23;95692.66;;;11.35;88.75
10014;BME280;45684;48.358;10.746;2023-06-14T01:50:52;95691.56;;;11.15;90.98
10014;BME280;45684;48.358;10.746;2023-06-14T01:53:21;95689.31;;;11.17;91.40
10014;BME280;45684;48.358;10.746;2023-06-14T01:55:49;95692.56;;;11.11;92.83
10014;BME280;45684;48.358;10.746;2023-06-14T01:58:21;95686.34;;;11.10;92.07
10014;BME280;45684;48.358;10.746;2023-06-14T02:00:50;95692.41;;;11.07;93.77
10014;BME280;45684;48.358;10.746;2023-06-14T02:03:21;95688.91;;;11.07;93.19
10014;BME280;45684;48.358;10.746;2023-06-14T02:05:51;95689.72;;;11.07;92.80
10014;BME280;45684;48.358;10.746;2023-06-14T02:08:22;95690.69;;;11.03;93.78
10014;BME280;45684;48.358;10.746;2023-06-14T02:10:50;95695.31;;;11.02;93.46
10014;BME280;45684;48.358;10.746;2023-06-14T02:13:20;95689.06;;;11.10;91.14
10014;BME280;45684;48.358;10.746;2023-06-14T02:15:49;95692.28;;;11.04;90.25
10014;BME280;45684;48.358;10.746;2023-06-14T02:18:21;95695.53;;;10.97;90.13
10014;BME280;45684;48.358;10.746;2023-06-14T02:20:49;95691.09;;;10.92;91.00
10014;BME280;45684;48.358;10.746;2023-06-14T02:23:17;95685.03;;;10.75;92.72
10014;BME280;45684;48.358;10.746;2023-06-14T02:25:46;95687.19;;;10.60;95.85
10014;BME280;45684;48.358;10.746;2023-06-14T02:28:14;95679.53;;;10.62;96.25
10014;BME280;45684;48.358;10.746;2023-06-14T02:30:42;95682.50;;;10.69;95.60
10014;BME280;45684;48.358;10.746;2023-06-14T02:33:10;95682.97;;;10.71;96.29
10014;BME280;45684;48.358;10.746;2023-06-14T02:35:39;95688.38;;;10.71;95.70
10014;BME280;45684;48.358;10.746;2023-06-14T02:38:08;95680.41;;;10.75;95.32
10014;BME280;45684;48.358;10.746;2023-06-14T02:40:35;95687.72;;;10.75;94.68
10014;BME280;45684;48.358;10.746;2023-06-14T02:43:05;95694.91;;;10.70;94.59
10014;BME280;45684;48.358;10.746;2023-06-14T02:45:33;95692.06;;;10.67;95.87
10014;BME280;45684;48.358;10.746;2023-06-14T02:48:01;95691.28;;;10.66;94.44
10014;BME280;45684;48.358;10.746;2023-06-14T02:50:29;95686.34;;;10.68;93.99
10014;BME280;45684;48.358;10.746;2023-06-14T02:52:57;95682.75;;;10.56;94.61
10014;BME280;45684;48.358;10.746;2023-06-14T02:55:24;95687.88;;;10.48;96.69
10014;BME280;45684;48.358;10.746;2023-06-14T02:57:53;95692.03;;;10.46;98.21
10014;BME280;45684;48.358;10.746;2023-06-14T03:00:22;95695.88;;;10.45;97.49
10014;BME280;45684;48.358;10.746;2023-06-14T03:02:50;95691.56;;;10.44;97.34
10014;BME280;45684;48.358;10.746;2023-06-14T03:05:20;95690.16;;;10.38;97.38
10014;BME280;45684;48.358;10.746;2023-06-14T03:07:48;95697.19;;;10.30;97.70
10014;BME280;45684;48.358;10.746;2023-06-14T03:10:17;95695.09;;;10.44;95.11
10014;BME280;45684;48.358;10.746;2023-06-14T03:12:45;95701.78;;;10.38;95.59
10014;BME280;45684;48.358;10.746;2023-06-14T03:15:14;95694.53;;;10.21;96.95
10014;BME280;45684;48.358;10.746;2023-06-14T03:17:47;95697.56;;;10.11;100.00
10014;BME280;45684;48.358;10.746;2023-06-14T03:20:16;95698.06;;;10.13;100.00
10014;BME280;45684;48.358;10.746;2023-06-14T03:22:45;95704.84;;;10.19;98.75
10014;BME280;45684;48.358;10.746;2023-06-14T03:25:14;95705.69;;;10.11;100.00
10014;BME280;45684;48.358;10.746;2023-06-14T03:27:44;95706.50;;;10.12;100.00
10014;BME280;45684;48.358;10.746;2023-06-14T03:30:13;95703.91;;;10.15;100.00
10014;BME280;45684;48.358;10.746;2023-06-14T03:32:44;95704.22;;;10.22;100.00
10014;BME280;45684;48.358;10.746;2023-06-14T03:35:13;95707.72;;;10.23;100.00
10014;BME280;45684;48.358;10.746;2023-06-14T03:37:45;95708.03;;;10.21;100.00
10014;BME280;45684;48.358;10.746;2023-06-14T03:40:16;95712.03;;;10.24;100.00
10014;BME280;45684;48.358;10.746;2023-06-14T03:42:47;95711.53;;;10.31;100.00
10014;BME280;45684;48.358;10.746;2023-06-14T03:45:15;95712.59;;;10.38;100.00
10014;BME280;45684;48.358;10.746;2023-06-14T03:47:43;95711.16;;;10.41;100.00
10014;BME280;45684;48.358;10.746;2023-06-14T03:50:12;95719.72;;;10.43;100.00
10014;BME280;45684;48.358;10.746;2023-06-14T03:52:41;95717.50;;;10.45;99.91
10014;BME280;45684;48.358;10.746;2023-06-14T03:55:11;95718.78;;;10.39;100.00
10014;BME280;45684;48.358;10.746;2023-06-14T03:57:43;95728.00;;;10.38;100.00
10014;BME280;45684;48.358;10.746;2023-06-14T04:00:14;95734.53;;;10.37;100.00
10014;BME280;45684;48.358;10.746;2023-06-14T04:02:43;95738.03;;;10.37;100.00
10014;BME280;45684;48.358;10.746;2023-06-14T04:05:13;95734.63;;;10.49;100.00
10014;BME280;45684;48.358;10.746;2023-06-14T04:07:46;95736.47;;;10.36;100.00
10014;BME280;45684;48.358;10.746;2023-06-14T04:10:16;95740.09;;;10.40;98.81
10014;BME280;45684;48.358;10.746;2023-06-14T04:12:44;95737.88;;;10.34;100.00
10014;BME280;45684;48.358;10.746;2023-06-14T04:15:12;95743.28;;;10.34;100.00
10014;BME280;45684;48.358;10.746;2023-06-14T04:17:50;95747.22;;;10.45;100.00
10014;BME280;45684;48.358;10.746;2023-06-14T04:20:21;95740.50;;;10.51;100.00
10014;BME280;45684;48.358;10.746;2023-06-14T04:22:50;95744.56;;;10.66;98.66
10014;BME280;45684;48.358;10.746;2023-06-14T04:25:19;95759.44;;;10.81;97.99
10014;BME280;45684;48.358;10.746;2023-06-14T04:27:51;95751.31;;;10.81;98.53
10014;BME280;45684;48.358;10.746;2023-06-14T04:30:19;95753.38;;;10.84;100.00
10014;BME280;45684;48.358;10.746;2023-06-14T04:32:49;95752.19;;;10.93;100.00
10014;BME280;45684;48.358;10.746;2023-06-14T04:35:23;95755.31;;;11.04;100.00
10014;BME280;45684;48.358;10.746;2023-06-14T04:37:52;95758.09;;;11.16;100.00
10014;BME280;45684;48.358;10.746;2023-06-14T04:40:21;95767.06;;;11.29;100.00
10014;BME280;45684;48.358;10.746;2023-06-14T04:42:49;95766.31;;;11.41;100.00
10014;BME280;45684;48.358;10.746;2023-06-14T04:45:18;95763.09;;;11.47;100.00
10014;BME280;45684;48.358;10.746;2023-06-14T04:47:46;95768.41;;;11.56;100.00
10014;BME280;45684;48.358;10.746;2023-06-14T04:50:14;95769.13;;;11.65;100.00
10014;BME280;45684;48.358;10.746;2023-06-14T04:52:46;95770.31;;;11.77;100.00
10014;BME280;45684;48.358;10.746;2023-06-14T04:59:31;95783.31;;;12.04;100.00
10014;BME280;45684;48.358;10.746;2023-06-14T05:02:00;95780.19;;;12.14;100.00
10014;BME280;45684;48.358;10.746;2023-06-14T05:04:27;95786.75;;;12.25;100.00
10014;BME280;45684;48.358;10.746;2023-06-14T05:06:57;95789.34;;;12.34;100.00
10014;BME280;45684;48.358;10.746;2023-06-14T05:09:26;95779.56;;;12.42;100.00
10014;BME280;45684;48.358;10.746;2023-06-14T05:11:54;95781.47;;;12.54;100.00
10014;BME280;45684;48.358;10.746;2023-06-14T05:14:22;95782.50;;;12.61;100.00
10014;BME280;45684;48.358;10.746;2023-06-14T05:16:51;95787.81;;;12.70;100.00
10014;BME280;45684;48.358;10.746;2023-06-14T05:19:19;95784.66;;;12.80;100.00
10014;BME280;45684;48.358;10.746;2023-06-14T05:21:47;95785.69;;;12.88;100.00
10014;BME280;45684;48.358;10.746;2023-06-14T05:24:15;95782.84;;;12.96;100.00
10014;BME280;45684;48.358;10.746;2023-06-14T05:26:45;95776.03;;;13.02;100.00
10014;BME280;45684;48.358;10.746;2023-06-14T05:29:13;95785.66;;;13.12;100.00
10014;BME280;45684;48.358;10.746;2023-06-14T05:31:41;95780.56;;;13.23;100.00
10014;BME280;45684;48.358;10.746;2023-06-14T05:34:08;95789.81;;;13.34;100.00
10014;BME280;45684;48.358;10.746;2023-06-14T05:36:36;95791.72;;;13.46;100.00
10014;BME280;45684;48.358;10.746;2023-06-14T05:39:05;95787.03;;;13.59;100.00
10014;BME280;45684;48.358;10.746;2023-06-14T05:41:33;95794.28;;;13.67;100.00
10014;BME280;45684;48.358;10.746;2023-06-14T05:44:02;95794.09;;;13.75;98.00
10014;BME280;45684;48.358;10.746;2023-06-14T05:46:30;95792.03;;;13.85;96.05
10014;BME280;45684;48.358;10.746;2023-06-14T05:48:58;95794.59;;;13.93;94.04
10014;BME280;45684;48.358;10.746;2023-06-14T05:51:26;95799.88;;;14.02;92.08
10014;BME280;45684;48.358;10.746;2023-06-14T05:53:53;95804.81;;;14.12;91.17
10014;BME280;45684;48.358;10.746;2023-06-14T05:56:22;95796.97;;;14.23;91.68
10014;BME280;45684;48.358;10.746;2023-06-14T05:58:50;95800.63;;;14.30;90.63
10014;BME280;45684;48.358;10.746;2023-06-14T06:01:19;95800.56;;;14.43;90.83
10014;BME280;45684;48.358;10.746;2023-06-14T06:03:47;95805.88;;;14.51;90.20
10014;BME280;45684;48.358;10.746;2023-06-14T06:06:15;95796.41;;;14.61;88.97
10014;BME280;45684;48.358;10.746;2023-06-14T06:08:43;95804.03;;;14.71;86.86
10014;BME280;45684;48.358;10.746;2023-06-14T06:11:11;95801.94;;;14.80;84.62
10014;BME280;45684;48.358;10.746;2023-06-14T06:13:39;95797.88;;;14.90;83.97
10014;BME280;45684;48.358;10.746;2023-06-14T06:16:07;95806.66;;;14.99;83.02
10014;BME280;45684;48.358;10.746;2023-06-14T06:18:37;95813.94;;;15.11;81.89
10014;BME280;45684;48.358;10.746;2023-06-14T06:21:05;95815.34;;;15.21;81.86
10014;BME280;45684;48.358;10.746;2023-06-14T06:23:33;95820.22;;;15.31;82.23
10014;BME280;45684;48.358;10.746;2023-06-14T06:26:02;95816.56;;;15.43;81.61
10014;BME280;45684;48.358;10.746;2023-06-14T06:28:30;95822.19;;;15.50;79.78
10014;BME280;45684;48.358;10.746;2023-06-14T06:30:57;95817.34;;;15.59;78.11
10014;BME280;45684;48.358;10.746;2023-06-14T06:33:28;95807.41;;;15.67;76.19
10014;BME280;45684;48.358;10.746;2023-06-14T06:35:58;95808.84;;;15.80;78.06
10014;BME280;45684;48.358;10.746;2023-06-14T06:38:26;95809.34;;;15.86;77.06
10014;BME280;45684;48.358;10.746;2023-06-14T06:40:54;95810.72;;;15.95;75.08
10014;BME280;45684;48.358;10.746;2023-06-14T06:43:23;95812.50;;;16.07;74.78
10014;BME280;45684;48.358;10.746;2023-06-14T06:45:50;95818.97;;;16.18;71.85
10014;BME280;45684;48.358;10.746;2023-06-14T06:48:18;95819.53;;;16.27;71.55
10014;BME280;45684;48.358;10.746;2023-06-14T06:50:46;95826.75;;;16.39;71.15
10014;BME280;45684;48.358;10.746;2023-06-14T06:53:15;95825.72;;;16.47;67.85
10014;BME280;45684;48.358;10.746;2023-06-14T06:56:00;95836.34;;;16.52;68.33
10014;BME280;45684;48.358;10.746;2023-06-14T06:58:28;95829.09;;;16.60;66.99
10014;BME280;45684;48.358;10.746;2023-06-14T07:00:56;95835.50;;;16.71;65.16
10014;BME280;45684;48.358;10.746;2023-06-14T07:03:24;95832.56;;;16.80;65.14
10014;BME280;45684;48.358;10.746;2023-06-14T07:05:51;95828.84;;;16.92;63.93
10014;BME280;45684;48.358;10.746;2023-06-14T07:08:21;95840.31;;;17.01;63.67
10014;BME280;45684;48.358;10.746;2023-06-14T07:10:48;95835.38;;;17.10;62.56
10014;BME280;45684;48.358;10.746;2023-06-14T07:13:16;95835.94;;;17.19;61.31
10014;BME280;45684;48.358;10.746;2023-06-14T07:15:44;95848.16;;;17.25;59.75
10014;BME280;45684;48.358;10.746;2023-06-14T07:18:12;95841.66;;;17.37;62.46
10014;BME280;45684;48.358;10.746;2023-06-14T07:20:42;95846.44;;;17.44;60.15
10014;BME280;45684;48.358;10.746;2023-06-14T07:23:10;95843.09;;;17.54;59.98
10014;BME280;45684;48.358;10.746;2023-06-14T07:25:39;95845.19;;;17.64;58.97
10014;BME280;45684;48.358;10.746;2023-06-14T07:28:07;95848.47;;;17.73;59.00
10014;BME280;45684;48.358;10.746;2023-06-14T07:30:35;95856.03;;;17.83;58.85
10014;BME280;45684;48.358;10.746;2023-06-14T07:33:03;95859.28;;;17.93;57.68
10014;BME280;45684;48.358;10.746;2023-06-14T07:35:31;95849.22;;;18.00;58.98
10014;BME280;45684;48.358;10.746;2023-06-14T07:37:59;95857.56;;;18.11;58.90
10014;BME280;45684;48.358;10.746;2023-06-14T07:40:26;95857.25;;;18.20;57.63
10014;BME280;45684;48.358;10.746;2023-06-14T07:42:56;95851.06;;;18.26;59.17
10014;BME280;45684;48.358;10.746;2023-06-14T07:45:23;95852.34;;;18.36;59.08
10014;BME280;45684;48.358;10.746;2023-06-14T07:47:51;95854.47;;;18.50;56.33
10014;BME280;45684;48.358;10.746;2023-06-14T07:50:20;95859.25;;;18.60;55.31
10014;BME280;45684;48.358;10.746;2023-06-14T07:52:47;95858.13;;;18.65;54.62
10014;BME280;45684;48.358;10.746;2023-06-14T07:55:15;95858.28;;;18.75;52.66
10014;BME280;45684;48.358;10.746;2023-06-14T07:57:44;95861.56;;;18.92;56.44
10014;BME280;45684;48.358;10.746;2023-06-14T08:00:16;95866.78;;;19.04;56.52
10014;BME280;45684;48.358;10.746;2023-06-14T08:02:45;95866.03;;;19.10;53.11
10014;BME280;45684;48.358;10.746;2023-06-14T08:05:13;95857.09;;;19.21;53.10
10014;BME280;45684;48.358;10.746;2023-06-14T08:07:41;95867.75;;;19.29;49.94
10014;BME280;45684;48.358;10.746;2023-06-14T08:10:09;95860.78;;;19.35;52.19
10014;BME280;45684;48.358;10.746;2023-06-14T08:12:37;95863.97;;;19.48;52.97
10014;BME280;45684;48.358;10.746;2023-06-14T08:15:05;95878.22;;;19.61;51.00
10014;BME280;45684;48.358;10.746;2023-06-14T08:17:42;95871.59;;;19.69;48.70
10014;BME280;45684;48.358;10.746;2023-06-14T08:20:11;95865.78;;;19.81;48.95
10014;BME280;45684;48.358;10.746;2023-06-14T08:22:40;95866.63;;;19.93;48.03
10014;BME280;45684;48.358;10.746;2023-06-14T08:25:09;95872.59;;;20.09;49.00
10014;BME280;45684;48.358;10.746;2023-06-14T08:27:37;95873.78;;;20.11;46.13
10014;BME280;45684;48.358;10.746;2023-06-14T08:30:06;95874.63;;;20.19;45.58
10014;BME280;45684;48.358;10.746;2023-06-14T08:32:35;95869.91;;;20.20;48.22
10014;BME280;45684;48.358;10.746;2023-06-14T08:35:05;95873.50;;;20.34;48.87
10014;BME280;45684;48.358;10.746;2023-06-14T08:37:38;95875.94;;;20.50;47.92
10014;BME280;45684;48.358;10.746;2023-06-14T08:40:17;95881.84;;;20.63;44.84
10014;BME280;45684;48.358;10.746;2023-06-14T08:42:47;95875.63;;;20.77;44.82
10014;BME280;45684;48.358;10.746;2023-06-14T08:45:16;95878.78;;;20.89;45.30
10014;BME280;45684;48.358;10.746;2023-06-14T08:47:44;95881.53;;;21.07;46.10
10014;BME280;45684;48.358;10.746;2023-06-14T08:50:14;95874.09;;;21.22;46.33
10014;BME280;45684;48.358;10.746;2023-06-14T08:52:55;95894.56;;;21.35;43.73
10014;BME280;45684;48.358;10.746;2023-06-14T08:55:24;95887.09;;;21.47;43.12
10014;BME280;45684;48.358;10.746;2023-06-14T08:57:54;95894.94;;;21.52;42.62
10014;BME280;45684;48.358;10.746;2023-06-14T09:00:24;95892.19;;;21.66;43.37
10014;BME280;45684;48.358;10.746;2023-06-14T09:02:52;95886.28;;;21.71;43.48
10014;BME280;45684;48.358;10.746;2023-06-14T09:05:26;95885.06;;;21.86;42.95
10014;BME280;45684;48.358;10.746;2023-06-14T09:07:55;95890.16;;;22.06;40.95
10014;BME280;45684;48.358;10.746;2023-06-14T09:10:32;95888.13;;;22.24;42.31
10014;BME280;45684;48.358;10.746;2023-06-14T09:13:01;95885.31;;;22.42;39.82
10014;BME280;45684;48.358;10.746;2023-06-14T09:15:29;95882.88;;;22.62;39.72
10014;BME280;45684;48.358;10.746;2023-06-14T09:17:57;95886.38;;;22.73;40.16
10014;BME280;45684;48.358;10.746;2023-06-14T09:20:29;95885.09;;;22.96;36.98
10014;BME280;45684;48.358;10.746;2023-06-14T09:22:57;95887.72;;;23.13;38.90
10014;BME280;45684;48.358;10.746;2023-06-14T09:25:25;95879.34;;;23.28;37.40
10014;BME280;45684;48.358;10.746;2023-06-14T09:27:56;95891.34;;;23.55;38.34
10014;BME280;45684;48.358;10.746;2023-06-14T09:30:24;95889.19;;;23.77;36.91
10014;BME280;45684;48.358;10.746;2023-06-14T09:32:52;95891.00;;;23.95;36.81
10014;BME280;45684;48.358;10.746;2023-06-14T09:35:20;95894.28;;;24.20;36.75
10014;BME280;45684;48.358;10.746;2023-06-14T09:37:50;95891.34;;;24.38;35.50
10014;BME280;45684;48.358;10.746;2023-06-14T09:40:20;95890.69;;;24.57;35.82
10014;BME280;45684;48.358;10.746;2023-06-14T09:42:48;95889.97;;;24.84;35.64
10014;BME280;45684;48.358;10.746;2023-06-14T09:45:17;95890.84;;;25.08;32.16
10014;BME280;45684;48.358;10.746;2023-06-14T09:47:49;95898.69;;;25.36;33.33
10014;BME280;45684;48.358;10.746;2023-06-14T09:50:31;95896.31;;;25.62;33.35
10014;BME280;45684;48.358;10.746;2023-06-14T09:53:03;95897.47;;;25.88;33.88
10014;BME280;45684;48.358;10.746;2023-06-14T09:55:34;95905.06;;;26.07;34.34
10014;BME280;45684;48.358;10.746;2023-06-14T09:58:05;95900.34;;;25.84;34.41
10014;BME280;45684;48.358;10.746;2023-06-14T10:00:35;95900.75;;;26.26;32.58
10014;BME280;45684;48.358;10.746;2023-06-14T10:03:06;95895.28;;;26.82;32.03
10014;BME280;45684;48.358;10.746;2023-06-14T10:05:41;95897.00;;;27.12;31.24
10014;BME280;45684;48.358;10.746;2023-06-14T10:08:14;95887.25;;;27.57;30.83
10014;BME280;45684;48.358;10.746;2023-06-14T10:10:43;95886.91;;;27.71;30.45
10014;BME280;45684;48.358;10.746;2023-06-14T10:13:12;95890.88;;;28.03;29.56
10014;BME280;45684;48.358;10.746;2023-06-14T10:15:47;95890.69;;;28.10;29.17
10014;BME280;45684;48.358;10.746;2023-06-14T10:18:25;95883.81;;;28.43;29.05
10014;BME280;45684;48.358;10.746;2023-06-14T10:21:03;95885.44;;;28.70;27.88
10014;BME280;45684;48.358;10.746;2023-06-14T10:23:38;95884.47;;;28.89;26.94
10014;BME280;45684;48.358;10.746;2023-06-14T10:26:18;95882.94;;;28.46;27.87
10014;BME280;45684;48.358;10.746;2023-06-14T10:28:56;95892.06;;;28.18;28.86
10014;BME280;45684;48.358;10.746;2023-06-14T10:31:39;95890.06;;;26.84;30.39
10014;BME280;45684;48.358;10.746;2023-06-14T10:34:08;95893.31;;;26.63;28.30
10014;BME280;45684;48.358;10.746;2023-06-14T10:36:37;95877.44;;;27.00;27.25
10014;BME280;45684;48.358;10.746;2023-06-14T10:39:12;95885.00;;;27.52;27.95
10014;BME280;45684;48.358;10.746;2023-06-14T10:41:42;95875.19;;;26.94;29.40
10014;BME280;45684;48.358;10.746;2023-06-14T10:44:43;95878.84;;;27.08;29.90
10014;BME280;45684;48.358;10.746;2023-06-14T10:47:24;95875.06;;;27.18;29.92
10014;BME280;45684;48.358;10.746;2023-06-14T10:49:54;95878.03;;;27.11;29.69
10014;BME280;45684;48.358;10.746;2023-06-14T10:52:26;95880.34;;;26.76;29.78
10014;BME280;45684;48.358;10.746;2023-06-14T10:55:09;95882.13;;;26.86;30.46
10014;BME280;45684;48.358;10.746;2023-06-14T10:57:40;95875.94;;;26.79;30.43
10014;BME280;45684;48.358;10.746;2023-06-14T11:00:13;95869.69;;;27.60;30.79
10014;BME280;45684;48.358;10.746;2023-06-14T11:03:16;95876.78;;;28.10;29.64
10014;BME280;45684;48.358;10.746;2023-06-14T11:05:53;95874.28;;;28.28;27.40
10014;BME280;45684;48.358;10.746;2023-06-14T11:08:33;95881.75;;;28.60;28.26
10014;BME280;45684;48.358;10.746;2023-06-14T11:11:07;95881.56;;;28.80;27.28
10014;BME280;45684;48.358;10.746;2023-06-14T11:13:37;95875.81;;;28.45;26.60
10014;BME280;45684;48.358;10.746;2023-06-14T11:16:17;95873.00;;;28.75;26.90
10014;BME280;45684;48.358;10.746;2023-06-14T11:18:46;95862.66;;;29.52;28.03
10014;BME280;45684;48.358;10.746;2023-06-14T11:21:16;95877.94;;;29.21;26.98
10014;BME280;45684;48.358;10.746;2023-06-14T11:23:49;95876.50;;;28.50;28.22
10014;BME280;45684;48.358;10.746;2023-06-14T11:26:25;95877.09;;;28.12;28.24
10014;BME280;45684;48.358;10.746;2023-06-14T11:28:55;95886.09;;;28.61;28.16
10014;BME280;45684;48.358;10.746;2023-06-14T11:31:24;95884.47;;;28.89;26.54
10014;BME280;45684;48.358;10.746;2023-06-14T11:33:54;95875.63;;;29.20;26.29
10014;BME280;45684;48.358;10.746;2023-06-14T11:36:26;95872.94;;;29.29;26.38
10014;BME280;45684;48.358;10.746;2023-06-14T11:38:59;95874.28;;;29.97;24.23
10014;BME280;45684;48.358;10.746;2023-06-14T11:41:35;95872.34;;;30.20;24.70
10014;BME280;45684;48.358;10.746;2023-06-14T11:44:04;95863.72;;;30.27;26.56
10014;BME280;45684;48.358;10.746;2023-06-14T11:46:32;95857.09;;;29.99;24.15
10014;BME280;45684;48.358;10.746;2023-06-14T11:49:01;95874.81;;;29.45;25.20
10014;BME280;45684;48.358;10.746;2023-06-14T11:51:30;95867.28;;;28.65;25.93
10014;BME280;45684;48.358;10.746;2023-06-14T11:53:58;95869.16;;;27.65;25.99
10014;BME280;45684;48.358;10.746;2023-06-14T11:56:26;95864.63;;;28.33;26.91
10014;BME280;45684;48.358;10.746;2023-06-14T11:58:56;95860.00;;;29.35;26.75
10014;BME280;45684;48.358;10.746;2023-06-14T12:01:24;95857.69;;;30.29;26.16
10014;BME280;45684;48.358;10.746;2023-06-14T12:03:53;95858.06;;;30.40;25.56
10014;BME280;45684;48.358;10.746;2023-06-14T12:06:29;95861.56;;;29.96;24.57
10014;BME280;45684;48.358;10.746;2023-06-14T12:09:03;95860.47;;;29.94;25.19
10014;BME280;45684;48.358;10.746;2023-06-14T12:11:34;95858.00;;;29.36;25.68
10014;BME280;45684;48.358;10.746;2023-06-14T12:14:04;95867.44;;;28.87;26.32
10014;BME280;45684;48.358;10.746;2023-06-14T12:16:33;95862.84;;;28.68;25.60
10014;BME280;45684;48.358;10.746;2023-06-14T12:19:12;95848.31;;;29.28;25.07
10014;BME280;45684;48.358;10.746;2023-06-14T12:21:41;95860.88;;;30.05;25.68
10014;BME280;45684;48.358;10.746;2023-06-14T12:24:11;95864.16;;;30.69;26.15
10014;BME280;45684;48.358;10.746;2023-06-14T12:26:41;95871.66;;;31.04;25.65
10014;BME280;45684;48.358;10.746;2023-06-14T12:29:10;95868.44;;;31.45;25.01
10014;BME280;45684;48.358;10.746;2023-06-14T12:31:39;95866.28;;;31.59;24.15
10014;BME280;45684;48.358;10.746;2023-06-14T12:34:07;95870.94;;;31.53;23.72
10014;BME280;45684;48.358;10.746;2023-06-14T12:36:35;95886.13;;;30.80;23.90
10014;BME280;45684;48.358;10.746;2023-06-14T12:39:08;95870.28;;;29.98;23.87
10014;BME280;45684;48.358;10.746;2023-06-14T12:41:36;95874.41;;;30.29;24.89
10014;BME280;45684;48.358;10.746;2023-06-14T12:44:04;95877.72;;;31.02;24.85
10014;BME280;45684;48.358;10.746;2023-06-14T12:46:33;95876.25;;;31.69;24.84
10014;BME280;45684;48.358;10.746;2023-06-14T12:49:01;95875.06;;;31.97;22.78
10014;BME280;45684;48.358;10.746;2023-06-14T12:51:29;95869.19;;;32.23;22.67
10014;BME280;45684;48.358;10.746;2023-06-14T12:53:57;95867.97;;;32.52;23.53
10014;BME280;45684;48.358;10.746;2023-06-14T12:56:25;95870.06;;;32.93;23.55
10014;BME280;45684;48.358;10.746;2023-06-14T12:58:54;95869.06;;;33.15;21.41
10014;BME280;45684;48.358;10.746;2023-06-14T13:01:22;95871.81;;;32.36;20.28
10014;BME280;45684;48.358;10.746;2023-06-14T13:03:51;95869.50;;;33.22;22.29
10014;BME280;45684;48.358;10.746;2023-06-14T13:06:20;95876.56;;;33.09;20.28